createdAt,value
2023-03-01T00:00:25.686Z,20.03
2023-03-01T00:05:44.669Z,23.80
2023-03-01T00:10:55.378Z,17.97
2023-03-01T00:16:06.745Z,16.92
2023-03-01T00:21:12.850Z,12.50
2023-03-01T00:26:17.126Z,12.10
2023-03-01T00:31:36.472Z,17.63
2023-03-01T00:36:40.647Z,11.27
2023-03-01T00:41:55.203Z,14.27
2023-03-01T00:47:09.650Z,10.05
2023-03-01T00:52:18.752Z,16.90
2023-03-01T00:57:26.755Z,12.00
2023-03-01T01:02:33.126Z,16.57
2023-03-01T01:07:37.830Z,12.80
2023-03-01T01:12:44.122Z,10.85
2023-03-01T01:17:50.572Z,12.70
2023-03-01T01:22:56.178Z,11.47
2023-03-01T01:28:01.346Z,15.00
2023-03-01T01:33:08.803Z,12.43
2023-03-01T01:38:21.003Z,15.93
2023-03-01T01:43:29.264Z,12.15
2023-03-01T01:48:47.530Z,14.70
2023-03-01T01:53:57.793Z,9.87
2023-03-01T01:59:01.557Z,13.80
2023-03-01T02:04:08.552Z,9.67
2023-03-01T02:09:20.719Z,17.40
2023-03-01T02:14:27.563Z,11.43
2023-03-01T02:19:41.430Z,20.93
2023-03-01T02:24:55.743Z,12.00
2023-03-01T02:30:11.541Z,14.23
2023-03-01T02:35:26.269Z,13.03
2023-03-01T02:40:36.119Z,8.80
2023-03-01T02:45:56.809Z,7.03
2023-03-01T02:51:13.260Z,20.50
2023-03-01T02:56:21.202Z,17.13
2023-03-01T03:01:37.962Z,19.70
2023-03-01T03:06:44.342Z,8.33
2023-03-01T03:11:55.940Z,16.60
2023-03-01T03:17:04.255Z,10.77
2023-03-01T03:22:11.000Z,5.40
2023-03-01T03:27:16.785Z,6.43
2023-03-01T03:32:24.191Z,16.90
2023-03-01T03:37:46.088Z,22.73
2023-03-01T03:42:51.042Z,8.20
2023-03-01T03:48:01.606Z,13.27
2023-03-01T03:53:09.016Z,7.17
2023-03-01T03:58:21.684Z,11.33
2023-03-01T04:03:38.563Z,10.67
2023-03-01T04:08:52.465Z,9.80
2023-03-01T04:13:59.008Z,14.03
2023-03-01T04:19:19.523Z,14.57
2023-03-01T04:24:26.627Z,12.50
2023-03-01T04:29:32.457Z,11.63
2023-03-01T04:34:36.897Z,14.60
2023-03-01T04:39:58.180Z,12.77
2023-03-01T04:45:01.773Z,17.67
2023-03-01T04:50:08.311Z,15.37
2023-03-01T04:55:23.272Z,11.13
2023-03-01T05:00:35.428Z,11.03
2023-03-01T05:05:41.277Z,14.43
2023-03-01T05:10:53.455Z,9.43
2023-03-01T05:15:59.574Z,14.63
2023-03-01T05:21:07.238Z,17.67
2023-03-01T05:26:30.186Z,10.93
2023-03-01T05:31:36.058Z,21.63
2023-03-01T05:36:45.248Z,11.13
2023-03-01T05:41:58.964Z,17.33
2023-03-01T05:47:11.549Z,19.67
2023-03-01T05:52:21.501Z,22.30
2023-03-01T05:57:35.390Z,12.83
2023-03-01T06:02:43.331Z,12.50
2023-03-01T06:07:50.611Z,16.43
2023-03-01T06:12:59.982Z,16.53
2023-03-01T06:18:12.726Z,21.33
2023-03-01T06:23:28.829Z,19.55
2023-03-01T06:28:35.921Z,15.43
2023-03-01T06:33:53.112Z,14.73
2023-03-01T06:39:04.784Z,11.87
2023-03-01T06:44:11.501Z,14.77
2023-03-01T06:49:28.543Z,6.43
2023-03-01T06:54:41.461Z,14.80
2023-03-01T06:59:53.330Z,12.63
2023-03-01T07:04:59.499Z,16.83
2023-03-01T07:10:09.535Z,10.57
2023-03-01T07:15:22.606Z,17.77
2023-03-01T07:20:36.769Z,9.53
2023-03-01T07:25:43.938Z,19.63
2023-03-01T07:30:50.880Z,7.80
2023-03-01T07:36:08.151Z,16.83
2023-03-01T07:41:15.213Z,19.20
2023-03-01T07:46:22.761Z,16.60
2023-03-01T07:51:35.968Z,12.33
2023-03-01T07:56:40.427Z,12.97
2023-03-01T08:01:53.241Z,9.80
2023-03-01T08:06:58.326Z,4.87
2023-03-01T08:12:03.104Z,14.57
2023-03-01T08:17:11.560Z,6.10
2023-03-01T08:22:20.271Z,10.20
2023-03-01T08:27:31.057Z,13.17
2023-03-01T08:32:51.070Z,11.97
2023-03-01T08:37:59.095Z,19.77
2023-03-01T08:43:08.842Z,17.40
2023-03-01T08:48:14.706Z,18.23
2023-03-01T08:53:22.221Z,9.37
2023-03-01T08:58:32.089Z,18.08
2023-03-01T09:03:39.807Z,16.77
2023-03-01T09:08:53.614Z,15.05
2023-03-01T09:19:01.262Z,21.60
2023-03-01T09:24:06.367Z,16.70
2023-03-01T09:29:21.304Z,13.13
2023-03-01T09:34:32.238Z,20.40
2023-03-01T09:39:40.965Z,19.33
2023-03-01T09:44:54.532Z,25.05
2023-03-01T09:50:08.519Z,18.35
2023-03-01T09:55:17.995Z,14.10
2023-03-01T10:00:29.000Z,17.35
2023-03-01T10:05:44.112Z,17.15
2023-03-01T10:10:54.320Z,13.07
2023-03-01T10:15:59.658Z,21.42
2023-03-01T10:21:17.530Z,24.08
2023-03-01T10:26:41.811Z,23.33
2023-03-01T10:31:56.305Z,22.15
2023-03-01T10:37:02.059Z,17.52
2023-03-01T10:42:23.712Z,20.35
2023-03-01T10:47:35.657Z,21.17
2023-03-01T10:52:53.347Z,23.80
2023-03-01T10:58:14.804Z,20.58
2023-03-01T11:03:26.118Z,21.92
2023-03-01T11:08:41.302Z,22.52
2023-03-01T11:14:03.148Z,26.98
2023-03-01T11:19:21.843Z,27.42
2023-03-01T11:24:34.183Z,23.75
2023-03-01T11:35:19.941Z,24.13
2023-03-01T11:40:34.315Z,27.30
2023-03-01T11:45:57.265Z,32.67
2023-03-01T11:56:21.226Z,21.65
2023-03-01T12:01:42.689Z,24.30
2023-03-01T12:06:57.641Z,25.92
2023-03-01T12:12:17.856Z,36.05
2023-03-01T12:17:38.624Z,30.58
2023-03-01T12:22:53.217Z,24.63
2023-03-01T12:28:17.686Z,24.60
2023-03-01T12:33:37.846Z,26.77
2023-03-01T12:38:58.037Z,23.23
2023-03-01T12:44:21.291Z,24.20
2023-03-01T12:49:31.451Z,26.88
2023-03-01T12:54:53.118Z,21.05
2023-03-01T13:00:17.087Z,23.75
2023-03-01T13:10:54.930Z,24.73
2023-03-01T13:16:34.969Z,23.00
2023-03-01T13:21:57.747Z,24.75
2023-03-01T13:27:26.244Z,21.67
2023-03-01T13:32:49.773Z,21.55
2023-03-01T13:37:54.675Z,26.73
2023-03-01T13:43:24.424Z,24.25
2023-03-01T13:48:31.779Z,24.67
2023-03-01T13:53:38.360Z,25.13
2023-03-01T13:58:49.620Z,22.83
2023-03-01T14:03:55.069Z,19.83
2023-03-01T14:09:11.605Z,26.73
2023-03-01T14:14:32.840Z,21.17
2023-03-01T14:19:42.084Z,24.25
2023-03-01T14:24:51.097Z,24.17
2023-03-01T14:30:16.289Z,20.95
2023-03-01T14:35:25.248Z,28.45
2023-03-01T14:40:29.942Z,27.42
2023-03-01T14:45:34.163Z,26.23
2023-03-01T14:50:45.715Z,22.35
2023-03-01T14:55:52.640Z,22.50
2023-03-01T15:01:16.113Z,19.77
2023-03-01T15:06:39.965Z,22.65
2023-03-01T15:11:48.898Z,22.52
2023-03-01T15:16:57.892Z,24.50
2023-03-01T15:22:14.260Z,22.27
2023-03-01T15:27:25.319Z,20.55
2023-03-01T15:32:43.786Z,20.45
2023-03-01T15:37:51.321Z,23.13
2023-03-01T15:42:59.865Z,17.38
2023-03-01T15:48:20.769Z,23.13
2023-03-01T15:53:27.879Z,23.13
2023-03-01T15:58:34.387Z,21.42
2023-03-01T16:03:39.519Z,20.00
2023-03-01T16:08:54.168Z,25.02
2023-03-01T16:14:01.341Z,22.92
2023-03-01T16:19:10.547Z,21.15
2023-03-01T16:24:19.690Z,21.70
2023-03-01T16:34:57.339Z,20.88
2023-03-01T16:40:21.333Z,23.10
2023-03-01T16:45:38.384Z,22.38
2023-03-01T16:50:46.057Z,24.90
2023-03-01T16:55:58.445Z,18.52
2023-03-01T17:01:19.358Z,19.80
2023-03-01T17:06:37.410Z,19.63
2023-03-01T17:11:47.320Z,21.27
2023-03-01T17:16:54.149Z,19.85
2023-03-01T17:21:58.092Z,19.52
2023-03-01T17:27:11.794Z,23.02
2023-03-01T17:32:16.814Z,25.55
2023-03-01T17:37:25.927Z,34.50
2023-03-01T17:42:36.958Z,59.35
2023-03-01T17:47:42.067Z,40.80
2023-03-01T17:52:47.771Z,20.02
2023-03-01T17:57:52.620Z,69.00
2023-03-01T18:02:56.424Z,25.08
2023-03-01T18:08:02.462Z,43.28
2023-03-01T18:13:10.830Z,23.55
2023-03-01T18:18:19.661Z,41.85
2023-03-01T18:23:27.808Z,31.55
2023-03-01T18:28:46.060Z,29.65
2023-03-01T18:33:52.944Z,34.15
2023-03-01T18:39:12.611Z,37.88
2023-03-01T18:44:40.213Z,32.67
2023-03-01T18:49:46.186Z,42.05
2023-03-01T18:55:04.138Z,43.67
2023-03-01T19:00:14.189Z,32.75
2023-03-01T19:05:27.237Z,36.75
2023-03-01T19:10:36.958Z,35.10
2023-03-01T19:15:51.500Z,26.33
2023-03-01T19:21:05.024Z,31.90
2023-03-01T19:26:19.266Z,24.43
2023-03-01T19:31:35.205Z,20.03
2023-03-01T19:37:09.028Z,25.42
2023-03-01T19:42:19.826Z,20.90
2023-03-01T19:47:25.241Z,25.45
2023-03-01T19:52:28.673Z,20.67
2023-03-01T19:57:34.115Z,22.63
2023-03-01T20:08:09.729Z,22.37
2023-03-01T20:13:12.213Z,20.70
2023-03-01T20:18:15.209Z,17.05
2023-03-01T20:23:19.551Z,13.67
2023-03-01T20:28:22.903Z,10.38
2023-03-01T20:33:25.769Z,13.37
2023-03-01T20:38:30.511Z,17.50
2023-03-01T20:43:34.988Z,13.80
2023-03-01T20:48:47.534Z,20.60
2023-03-01T20:53:51.991Z,26.40
2023-03-01T20:58:59.613Z,19.10
2023-03-01T21:04:03.398Z,19.95
2023-03-01T21:09:10.772Z,26.20
2023-03-01T21:14:13.659Z,25.20
2023-03-01T21:19:16.226Z,19.30
2023-03-01T21:24:21.114Z,26.17
2023-03-01T21:34:26.410Z,23.17
2023-03-01T21:39:34.677Z,16.93
2023-03-01T21:44:38.014Z,21.07
2023-03-01T21:49:41.396Z,15.27
2023-03-01T21:54:46.537Z,19.05
2023-03-01T21:59:49.112Z,24.67
2023-03-01T22:04:57.682Z,21.97
2023-03-01T22:10:01.837Z,25.17
2023-03-01T22:15:08.723Z,29.57
2023-03-01T22:20:12.303Z,23.33
2023-03-01T22:25:16.077Z,17.55
2023-03-01T22:30:29.802Z,23.73
2023-03-01T22:35:32.681Z,18.75
2023-03-01T22:40:39.093Z,25.30
2023-03-01T22:45:41.799Z,22.77
2023-03-01T22:50:45.192Z,25.00
2023-03-01T22:55:50.037Z,21.98
2023-03-01T23:00:53.339Z,22.17
2023-03-01T23:05:56.343Z,21.90
2023-03-01T23:11:02.110Z,19.33
2023-03-01T23:16:05.877Z,22.50
2023-03-01T23:21:10.159Z,24.73
2023-03-01T23:26:14.673Z,23.13
2023-03-01T23:31:31.340Z,26.63
2023-03-01T23:36:44.923Z,24.63
2023-03-01T23:41:49.491Z,27.30
2023-03-01T23:46:52.974Z,31.20
2023-03-01T23:51:56.000Z,15.23
2023-03-01T23:57:01.898Z,26.13
